Charlton, Massachusetts
Current Conditions -  °F | °C
As of 8:54 PM on Saturday 22 Nov 2014 (Local Time) from KORH Reporting Station
Clear Clear  
Wind Chill: 25°   Ceiling: Unl
Heat Index: 37°   Visibility: 10mi
Dew Point: 15°   Wind: 26mph
Humidity: 41%   Direction: 250°WSW
Pressure: 30.04"   Gusts: 38mph
Location:  42.14°N, 71.97°W
Report Text: KORH 230154Z AUTO 25023G33KT 10SM CLR 03/M09 A3004 RMK AO2 PK WND 24034/0056 SLP184 LAST AUGMENTED OBS T00281094
Loading
Personal Weather Stations






























Interactive Weather Map New forecast layout! Learn more

10-Day Weather Forecast

Advertisements
Track Severe Weather on mobile